sensor_id;sensor_type;location;lat;lon;timestamp;temperature;humidity
41924;DHT22;27613;48.116;11.656;2023-06-10T00:02:00;17.00;99.90
41924;DHT22;27613;48.116;11.656;2023-06-10T00:04:27;16.90;99.90
41924;DHT22;27613;48.116;11.656;2023-06-10T00:06:53;16.90;99.90
41924;DHT22;27613;48.116;11.656;2023-06-10T00:09:19;16.90;99.90
41924;DHT22;27613;48.116;11.656;2023-06-10T00:11:46;16.90;99.90
41924;DHT22;27613;48.116;11.656;2023-06-10T00:14:12;16.90;99.90
41924;DHT22;27613;48.116;11.656;2023-06-10T00:16:38;16.80;99.90
41924;DHT22;27613;48.116;11.656;2023-06-10T00:19:04;16.70;99.90
41924;DHT22;27613;48.116;11.656;2023-06-10T00:21:31;16.70;99.90
41924;DHT22;27613;48.116;11.656;2023-06-10T00:24:11;16.60;99.90
41924;DHT22;27613;48.116;11.656;2023-06-10T00:26:41;16.50;99.90
41924;DHT22;27613;48.116;11.656;2023-06-10T00:29:07;16.60;99.90
41924;DHT22;27613;48.116;11.656;2023-06-10T00:31:37;16.50;99.90
41924;DHT22;27613;48.116;11.656;2023-06-10T00:34:03;16.40;99.90
41924;DHT22;27613;48.116;11.656;2023-06-10T00:36:29;16.40;99.90
41924;DHT22;27613;48.116;11.656;2023-06-10T00:38:55;16.40;99.90
41924;DHT22;27613;48.116;11.656;2023-06-10T00:41:20;16.40;99.90
41924;DHT22;27613;48.116;11.656;2023-06-10T00:43:46;16.40;99.90
41924;DHT22;27613;48.116;11.656;2023-06-10T00:46:12;16.40;99.90
41924;DHT22;27613;48.116;11.656;2023-06-10T00:48:40;16.30;99.90
41924;DHT22;27613;48.116;11.656;2023-06-10T00:51:06;16.30;99.90
41924;DHT22;27613;48.116;11.656;2023-06-10T00:53:34;16.20;99.90
41924;DHT22;27613;48.116;11.656;2023-06-10T00:56:00;16.20;99.90
41924;DHT22;27613;48.116;11.656;2023-06-10T00:58:26;16.20;99.90
41924;DHT22;27613;48.116;11.656;2023-06-10T01:00:52;16.10;99.90
41924;DHT22;27613;48.116;11.656;2023-06-10T01:03:18;16.00;99.90
41924;DHT22;27613;48.116;11.656;2023-06-10T01:05:50;16.00;99.90
41924;DHT22;27613;48.116;11.656;2023-06-10T01:08:28;16.00;99.90
41924;DHT22;27613;48.116;11.656;2023-06-10T01:11:00;15.90;99.90
41924;DHT22;27613;48.116;11.656;2023-06-10T01:13:27;15.90;99.90
41924;DHT22;27613;48.116;11.656;2023-06-10T01:15:57;15.80;99.90
41924;DHT22;27613;48.116;11.656;2023-06-10T01:18:29;15.70;99.90
41924;DHT22;27613;48.116;11.656;2023-06-10T01:20:55;15.70;99.90
41924;DHT22;27613;48.116;11.656;2023-06-10T01:23:22;15.60;99.90
41924;DHT22;27613;48.116;11.656;2023-06-10T01:26:06;15.50;99.90
41924;DHT22;27613;48.116;11.656;2023-06-10T01:28:40;15.60;99.90
41924;DHT22;27613;48.116;11.656;2023-06-10T01:33:42;15.50;99.90
41924;DHT22;27613;48.116;11.656;2023-06-10T01:36:09;15.50;99.90
41924;DHT22;27613;48.116;11.656;2023-06-10T01:38:42;15.40;99.90
41924;DHT22;27613;48.116;11.656;2023-06-10T01:41:08;15.40;99.90
41924;DHT22;27613;48.116;11.656;2023-06-10T01:43:36;15.40;99.90
41924;DHT22;27613;48.116;11.656;2023-06-10T01:46:02;15.40;99.90
41924;DHT22;27613;48.116;11.656;2023-06-10T01:48:28;15.30;99.90
41924;DHT22;27613;48.116;11.656;2023-06-10T01:50:53;15.30;99.90
41924;DHT22;27613;48.116;11.656;2023-06-10T01:53:21;15.20;99.90
41924;DHT22;27613;48.116;11.656;2023-06-10T01:55:47;15.20;99.90
41924;DHT22;27613;48.116;11.656;2023-06-10T01:58:12;15.10;99.90
41924;DHT22;27613;48.116;11.656;2023-06-10T02:00:38;15.20;99.90
41924;DHT22;27613;48.116;11.656;2023-06-10T02:03:04;15.00;99.90
41924;DHT22;27613;48.116;11.656;2023-06-10T02:05:29;15.00;99.90
41924;DHT22;27613;48.116;11.656;2023-06-10T02:07:55;14.90;99.90
41924;DHT22;27613;48.116;11.656;2023-06-10T02:10:20;14.90;99.90
41924;DHT22;27613;48.116;11.656;2023-06-10T02:12:46;14.80;99.90
41924;DHT22;27613;48.116;11.656;2023-06-10T02:15:11;14.80;99.90
41924;DHT22;27613;48.116;11.656;2023-06-10T02:17:37;14.70;99.90
41924;DHT22;27613;48.116;11.656;2023-06-10T02:20:03;14.70;99.90
41924;DHT22;27613;48.116;11.656;2023-06-10T02:22:32;14.70;99.90
41924;DHT22;27613;48.116;11.656;2023-06-10T02:24:58;14.70;99.90
41924;DHT22;27613;48.116;11.656;2023-06-10T02:27:24;14.60;99.90
41924;DHT22;27613;48.116;11.656;2023-06-10T02:29:50;14.60;99.90
41924;DHT22;27613;48.116;11.656;2023-06-10T02:32:15;14.50;99.90
41924;DHT22;27613;48.116;11.656;2023-06-10T02:34:41;14.40;99.90
41924;DHT22;27613;48.116;11.656;2023-06-10T02:37:08;14.40;99.90
41924;DHT22;27613;48.116;11.656;2023-06-10T02:39:34;14.40;99.90
41924;DHT22;27613;48.116;11.656;2023-06-10T02:42:00;14.30;99.90
41924;DHT22;27613;48.116;11.656;2023-06-10T02:44:25;14.40;99.90
41924;DHT22;27613;48.116;11.656;2023-06-10T02:46:51;14.30;99.90
41924;DHT22;27613;48.116;11.656;2023-06-10T02:49:16;14.30;99.90
41924;DHT22;27613;48.116;11.656;2023-06-10T02:51:42;14.20;99.90
41924;DHT22;27613;48.116;11.656;2023-06-10T02:54:07;14.20;99.90
41924;DHT22;27613;48.116;11.656;2023-06-10T02:56:33;14.20;99.90
41924;DHT22;27613;48.116;11.656;2023-06-10T02:58:59;14.10;99.90
41924;DHT22;27613;48.116;11.656;2023-06-10T03:01:25;13.90;99.90
41924;DHT22;27613;48.116;11.656;2023-06-10T03:03:51;13.80;99.90
41924;DHT22;27613;48.116;11.656;2023-06-10T03:06:17;13.90;99.90
41924;DHT22;27613;48.116;11.656;2023-06-10T03:08:43;13.90;99.90
41924;DHT22;27613;48.116;11.656;2023-06-10T03:11:09;13.90;99.90
41924;DHT22;27613;48.116;11.656;2023-06-10T03:13:35;13.90;99.90
41924;DHT22;27613;48.116;11.656;2023-06-10T03:16:01;13.90;99.90
41924;DHT22;27613;48.116;11.656;2023-06-10T03:18:28;13.90;99.90
41924;DHT22;27613;48.116;11.656;2023-06-10T03:20:57;13.90;99.90
41924;DHT22;27613;48.116;11.656;2023-06-10T03:23:23;13.90;99.90
41924;DHT22;27613;48.116;11.656;2023-06-10T03:25:48;13.90;99.90
41924;DHT22;27613;48.116;11.656;2023-06-10T03:28:14;13.90;99.90
41924;DHT22;27613;48.116;11.656;2023-06-10T03:30:40;13.90;99.90
41924;DHT22;27613;48.116;11.656;2023-06-10T03:33:05;13.90;99.90
41924;DHT22;27613;48.116;11.656;2023-06-10T03:35:31;13.90;99.90
41924;DHT22;27613;48.116;11.656;2023-06-10T03:38:00;13.90;99.90
41924;DHT22;27613;48.116;11.656;2023-06-10T03:40:25;13.90;99.90
41924;DHT22;27613;48.116;11.656;2023-06-10T03:42:51;13.90;99.90
41924;DHT22;27613;48.116;11.656;2023-06-10T03:45:16;13.90;99.90
41924;DHT22;27613;48.116;11.656;2023-06-10T03:47:43;13.90;99.90
41924;DHT22;27613;48.116;11.656;2023-06-10T03:50:09;13.90;99.90
41924;DHT22;27613;48.116;11.656;2023-06-10T03:52:35;14.00;99.90
41924;DHT22;27613;48.116;11.656;2023-06-10T03:55:01;14.00;99.90
41924;DHT22;27613;48.116;11.656;2023-06-10T03:57:26;14.00;99.90
41924;DHT22;27613;48.116;11.656;2023-06-10T03:59:52;13.90;99.90
41924;DHT22;27613;48.116;11.656;2023-06-10T04:02:18;14.00;99.90
41924;DHT22;27613;48.116;11.656;2023-06-10T04:04:43;14.00;99.90
41924;DHT22;27613;48.116;11.656;2023-06-10T04:07:09;14.00;99.90
41924;DHT22;27613;48.116;11.656;2023-06-10T04:09:35;14.10;99.90
41924;DHT22;27613;48.116;11.656;2023-06-10T04:12:01;14.10;99.90
41924;DHT22;27613;48.116;11.656;2023-06-10T04:14:27;14.20;99.90
41924;DHT22;27613;48.116;11.656;2023-06-10T04:16:53;14.20;99.90
41924;DHT22;27613;48.116;11.656;2023-06-10T04:19:18;14.20;99.90
41924;DHT22;27613;48.116;11.656;2023-06-10T04:21:45;14.20;99.90
41924;DHT22;27613;48.116;11.656;2023-06-10T04:24:11;14.20;99.90
41924;DHT22;27613;48.116;11.656;2023-06-10T04:26:36;14.30;99.90
41924;DHT22;27613;48.116;11.656;2023-06-10T04:29:02;14.30;99.90
41924;DHT22;27613;48.116;11.656;2023-06-10T04:31:28;14.40;99.90
41924;DHT22;27613;48.116;11.656;2023-06-10T04:33:53;14.50;99.90
41924;DHT22;27613;48.116;11.656;2023-06-10T04:36:19;14.50;99.90
41924;DHT22;27613;48.116;11.656;2023-06-10T04:38:45;14.50;99.90
41924;DHT22;27613;48.116;11.656;2023-06-10T04:41:11;14.60;99.90
41924;DHT22;27613;48.116;11.656;2023-06-10T04:43:36;14.60;99.90
41924;DHT22;27613;48.116;11.656;2023-06-10T04:46:02;14.60;99.90
41924;DHT22;27613;48.116;11.656;2023-06-10T04:48:28;14.70;99.90
41924;DHT22;27613;48.116;11.656;2023-06-10T04:50:53;14.80;99.90
41924;DHT22;27613;48.116;11.656;2023-06-10T04:53:19;14.90;99.90
41924;DHT22;27613;48.116;11.656;2023-06-10T04:55:46;14.90;99.90
41924;DHT22;27613;48.116;11.656;2023-06-10T04:58:12;15.00;99.90
41924;DHT22;27613;48.116;11.656;2023-06-10T05:00:37;15.00;99.90
41924;DHT22;27613;48.116;11.656;2023-06-10T05:03:03;15.10;99.90
41924;DHT22;27613;48.116;11.656;2023-06-10T05:05:28;15.10;99.90
41924;DHT22;27613;48.116;11.656;2023-06-10T05:07:54;15.20;99.90
41924;DHT22;27613;48.116;11.656;2023-06-10T05:10:19;15.20;99.90
41924;DHT22;27613;48.116;11.656;2023-06-10T05:12:45;15.20;99.90
41924;DHT22;27613;48.116;11.656;2023-06-10T05:15:10;15.30;99.90
41924;DHT22;27613;48.116;11.656;2023-06-10T05:17:36;15.40;99.90
41924;DHT22;27613;48.116;11.656;2023-06-10T05:20:02;15.50;99.90
41924;DHT22;27613;48.116;11.656;2023-06-10T05:22:28;15.50;99.90
41924;DHT22;27613;48.116;11.656;2023-06-10T05:24:53;15.50;99.90
41924;DHT22;27613;48.116;11.656;2023-06-10T05:27:19;15.60;99.90
41924;DHT22;27613;48.116;11.656;2023-06-10T05:29:45;15.70;99.90
41924;DHT22;27613;48.116;11.656;2023-06-10T05:32:11;15.80;99.90
41924;DHT22;27613;48.116;11.656;2023-06-10T05:34:37;15.80;99.90
41924;DHT22;27613;48.116;11.656;2023-06-10T05:37:02;15.80;99.90
41924;DHT22;27613;48.116;11.656;2023-06-10T05:39:28;15.90;99.90
41924;DHT22;27613;48.116;11.656;2023-06-10T05:41:54;16.00;99.90
41924;DHT22;27613;48.116;11.656;2023-06-10T05:44:19;16.00;99.90
41924;DHT22;27613;48.116;11.656;2023-06-10T05:46:45;16.10;99.90
41924;DHT22;27613;48.116;11.656;2023-06-10T05:49:10;16.10;99.90
41924;DHT22;27613;48.116;11.656;2023-06-10T05:51:36;16.20;99.90
41924;DHT22;27613;48.116;11.656;2023-06-10T05:54:02;16.30;99.90
41924;DHT22;27613;48.116;11.656;2023-06-10T05:56:28;16.30;99.90
41924;DHT22;27613;48.116;11.656;2023-06-10T05:58:53;16.40;99.90
41924;DHT22;27613;48.116;11.656;2023-06-10T06:01:19;16.40;99.90
41924;DHT22;27613;48.116;11.656;2023-06-10T06:03:45;16.50;99.90
41924;DHT22;27613;48.116;11.656;2023-06-10T06:06:10;16.50;99.90
41924;DHT22;27613;48.116;11.656;2023-06-10T06:08:36;16.50;99.90
41924;DHT22;27613;48.116;11.656;2023-06-10T06:11:01;16.70;99.90
41924;DHT22;27613;48.116;11.656;2023-06-10T06:13:27;16.70;99.90
41924;DHT22;27613;48.116;11.656;2023-06-10T06:15:52;16.70;99.90
41924;DHT22;27613;48.116;11.656;2023-06-10T06:18:18;16.80;99.90
41924;DHT22;27613;48.116;11.656;2023-06-10T06:20:44;16.90;99.90
41924;DHT22;27613;48.116;11.656;2023-06-10T06:23:10;17.10;99.90
41924;DHT22;27613;48.116;11.656;2023-06-10T06:25:36;17.10;99.90
41924;DHT22;27613;48.116;11.656;2023-06-10T06:28:05;17.30;99.90
41924;DHT22;27613;48.116;11.656;2023-06-10T06:30:31;17.30;99.90
41924;DHT22;27613;48.116;11.656;2023-06-10T06:32:56;17.30;99.90
41924;DHT22;27613;48.116;11.656;2023-06-10T06:35:22;17.30;99.90
41924;DHT22;27613;48.116;11.656;2023-06-10T06:37:48;17.40;99.90
41924;DHT22;27613;48.116;11.656;2023-06-10T06:40:13;17.20;99.90
41924;DHT22;27613;48.116;11.656;2023-06-10T06:42:39;17.10;99.90
41924;DHT22;27613;48.116;11.656;2023-06-10T06:45:05;17.10;99.90
41924;DHT22;27613;48.116;11.656;2023-06-10T06:47:31;17.00;99.90
41924;DHT22;27613;48.116;11.656;2023-06-10T06:49:56;17.00;99.90
41924;DHT22;27613;48.116;11.656;2023-06-10T06:52:22;17.00;99.90
41924;DHT22;27613;48.116;11.656;2023-06-10T06:54:48;17.00;99.90
41924;DHT22;27613;48.116;11.656;2023-06-10T06:57:13;17.20;99.90
41924;DHT22;27613;48.116;11.656;2023-06-10T06:59:39;17.30;99.90
41924;DHT22;27613;48.116;11.656;2023-06-10T07:02:05;17.50;99.90
41924;DHT22;27613;48.116;11.656;2023-06-10T07:04:30;17.70;99.90
41924;DHT22;27613;48.116;11.656;2023-06-10T07:06:56;17.90;99.90
41924;DHT22;27613;48.116;11.656;2023-06-10T07:09:22;18.10;99.90
41924;DHT22;27613;48.116;11.656;2023-06-10T07:11:47;18.30;99.90
41924;DHT22;27613;48.116;11.656;2023-06-10T07:14:13;18.40;99.90
41924;DHT22;27613;48.116;11.656;2023-06-10T07:16:38;18.70;99.90
41924;DHT22;27613;48.116;11.656;2023-06-10T07:19:04;18.70;99.90
41924;DHT22;27613;48.116;11.656;2023-06-10T07:21:30;18.80;99.90
41924;DHT22;27613;48.116;11.656;2023-06-10T07:23:56;18.90;99.90
41924;DHT22;27613;48.116;11.656;2023-06-10T07:26:24;19.00;99.90
41924;DHT22;27613;48.116;11.656;2023-06-10T07:28:51;19.20;99.90
41924;DHT22;27613;48.116;11.656;2023-06-10T07:31:16;19.30;99.90
41924;DHT22;27613;48.116;11.656;2023-06-10T07:33:42;19.30;99.90
41924;DHT22;27613;48.116;11.656;2023-06-10T07:36:09;19.50;99.90
41924;DHT22;27613;48.116;11.656;2023-06-10T07:38:35;19.60;99.90
41924;DHT22;27613;48.116;11.656;2023-06-10T07:41:00;19.60;99.90
41924;DHT22;27613;48.116;11.656;2023-06-10T07:43:26;19.70;99.90
41924;DHT22;27613;48.116;11.656;2023-06-10T07:45:52;19.80;99.90
41924;DHT22;27613;48.116;11.656;2023-06-10T07:48:18;20.00;99.90
41924;DHT22;27613;48.116;11.656;2023-06-10T07:50:43;20.00;99.90
41924;DHT22;27613;48.116;11.656;2023-06-10T07:53:09;20.20;99.90
41924;DHT22;27613;48.116;11.656;2023-06-10T07:55:34;20.20;99.90
41924;DHT22;27613;48.116;11.656;2023-06-10T07:58:00;20.30;99.90
41924;DHT22;27613;48.116;11.656;2023-06-10T08:00:25;20.40;99.90
41924;DHT22;27613;48.116;11.656;2023-06-10T08:02:51;20.40;99.90
41924;DHT22;27613;48.116;11.656;2023-06-10T08:05:17;20.70;99.90
41924;DHT22;27613;48.116;11.656;2023-06-10T08:07:42;20.70;99.00
41924;DHT22;27613;48.116;11.656;2023-06-10T08:10:08;20.50;97.50
41924;DHT22;27613;48.116;11.656;2023-06-10T08:12:35;20.60;99.90
41924;DHT22;27613;48.116;11.656;2023-06-10T08:15:01;20.90;99.90
41924;DHT22;27613;48.116;11.656;2023-06-10T08:17:27;21.10;99.60
41924;DHT22;27613;48.116;11.656;2023-06-10T08:19:52;21.10;98.70
41924;DHT22;27613;48.116;11.656;2023-06-10T08:22:18;21.50;99.30
41924;DHT22;27613;48.116;11.656;2023-06-10T08:24:44;21.50;96.50
41924;DHT22;27613;48.116;11.656;2023-06-10T08:27:09;21.70;96.80
41924;DHT22;27613;48.116;11.656;2023-06-10T08:29:36;21.50;95.90
41924;DHT22;27613;48.116;11.656;2023-06-10T08:32:01;21.80;96.00
41924;DHT22;27613;48.116;11.656;2023-06-10T08:34:27;21.80;95.00
41924;DHT22;27613;48.116;11.656;2023-06-10T08:36:53;22.00;93.70
41924;DHT22;27613;48.116;11.656;2023-06-10T08:39:21;22.10;93.20
41924;DHT22;27613;48.116;11.656;2023-06-10T08:42:17;22.10;92.70
41924;DHT22;27613;48.116;11.656;2023-06-10T08:44:53;22.60;91.10
41924;DHT22;27613;48.116;11.656;2023-06-10T08:47:19;23.00;89.60
41924;DHT22;27613;48.116;11.656;2023-06-10T08:49:47;23.50;82.90
41924;DHT22;27613;48.116;11.656;2023-06-10T08:52:21;24.00;82.60
41924;DHT22;27613;48.116;11.656;2023-06-10T08:55:03;24.30;83.00
41924;DHT22;27613;48.116;11.656;2023-06-10T08:57:29;23.90;85.80
41924;DHT22;27613;48.116;11.656;2023-06-10T08:59:56;23.90;85.40
41924;DHT22;27613;48.116;11.656;2023-06-10T09:02:23;23.70;86.30
41924;DHT22;27613;48.116;11.656;2023-06-10T09:04:50;23.70;85.50
41924;DHT22;27613;48.116;11.656;2023-06-10T09:07:16;24.20;84.20
41924;DHT22;27613;48.116;11.656;2023-06-10T09:09:43;23.50;84.90
41924;DHT22;27613;48.116;11.656;2023-06-10T09:12:10;24.00;84.60
41924;DHT22;27613;48.116;11.656;2023-06-10T09:14:36;24.40;81.80
41924;DHT22;27613;48.116;11.656;2023-06-10T09:17:02;24.50;81.80
41924;DHT22;27613;48.116;11.656;2023-06-10T09:19:28;24.50;80.40
41924;DHT22;27613;48.116;11.656;2023-06-10T09:21:54;24.50;80.30
41924;DHT22;27613;48.116;11.656;2023-06-10T09:24:24;24.50;80.00
41924;DHT22;27613;48.116;11.656;2023-06-10T09:26:50;25.40;80.00
41924;DHT22;27613;48.116;11.656;2023-06-10T09:29:16;25.60;77.60
41924;DHT22;27613;48.116;11.656;2023-06-10T09:31:43;25.60;75.70
41924;DHT22;27613;48.116;11.656;2023-06-10T09:34:14;26.60;73.10
41924;DHT22;27613;48.116;11.656;2023-06-10T09:36:41;27.10;72.10
41924;DHT22;27613;48.116;11.656;2023-06-10T09:39:17;27.70;70.40
41924;DHT22;27613;48.116;11.656;2023-06-10T09:41:43;28.10;67.90
41924;DHT22;27613;48.116;11.656;2023-06-10T09:44:19;28.30;66.10
41924;DHT22;27613;48.116;11.656;2023-06-10T09:46:47;28.10;66.00
41924;DHT22;27613;48.116;11.656;2023-06-10T09:49:13;28.00;65.50
41924;DHT22;27613;48.116;11.656;2023-06-10T09:51:58;27.90;67.00
41924;DHT22;27613;48.116;11.656;2023-06-10T09:54:23;29.00;65.80
41924;DHT22;27613;48.116;11.656;2023-06-10T09:56:51;30.00;62.70
41924;DHT22;27613;48.116;11.656;2023-06-10T09:59:28;29.90;61.30
41924;DHT22;27613;48.116;11.656;2023-06-10T10:01:55;29.30;61.80
41924;DHT22;27613;48.116;11.656;2023-06-10T10:04:25;29.40;62.70
41924;DHT22;27613;48.116;11.656;2023-06-10T10:06:50;28.90;61.90
41924;DHT22;27613;48.116;11.656;2023-06-10T10:09:16;28.80;62.50
41924;DHT22;27613;48.116;11.656;2023-06-10T10:11:43;29.10;61.40
41924;DHT22;27613;48.116;11.656;2023-06-10T10:14:10;29.60;61.10
41924;DHT22;27613;48.116;11.656;2023-06-10T10:16:37;28.80;61.60
41924;DHT22;27613;48.116;11.656;2023-06-10T10:19:07;28.10;62.20
41924;DHT22;27613;48.116;11.656;2023-06-10T10:21:43;28.20;62.70
41924;DHT22;27613;48.116;11.656;2023-06-10T10:26:37;31.90;56.50
41924;DHT22;27613;48.116;11.656;2023-06-10T10:29:33;31.20;56.20
41924;DHT22;27613;48.116;11.656;2023-06-10T10:32:02;30.10;57.10
41924;DHT22;27613;48.116;11.656;2023-06-10T10:34:50;30.50;56.70
41924;DHT22;27613;48.116;11.656;2023-06-10T10:37:20;29.70;58.00
41924;DHT22;27613;48.116;11.656;2023-06-10T10:39:47;29.60;59.10
41924;DHT22;27613;48.116;11.656;2023-06-10T10:42:13;28.70;59.70
41924;DHT22;27613;48.116;11.656;2023-06-10T10:44:40;27.70;61.50
41924;DHT22;27613;48.116;11.656;2023-06-10T10:47:08;26.90;63.30
41924;DHT22;27613;48.116;11.656;2023-06-10T10:49:35;28.40;61.70
41924;DHT22;27613;48.116;11.656;2023-06-10T10:52:02;30.60;57.60
41924;DHT22;27613;48.116;11.656;2023-06-10T10:54:36;32.00;54.50
41924;DHT22;27613;48.116;11.656;2023-06-10T10:57:12;30.60;54.90
41924;DHT22;27613;48.116;11.656;2023-06-10T11:00:00;31.90;55.00
41924;DHT22;27613;48.116;11.656;2023-06-10T11:04:57;30.20;55.70
41924;DHT22;27613;48.116;11.656;2023-06-10T11:07:24;29.60;56.30
41924;DHT22;27613;48.116;11.656;2023-06-10T11:10:01;28.90;58.00
41924;DHT22;27613;48.116;11.656;2023-06-10T11:15:18;27.70;59.40
41924;DHT22;27613;48.116;11.656;2023-06-10T11:18:13;27.60;59.90
41924;DHT22;27613;48.116;11.656;2023-06-10T11:23:07;29.80;58.00
41924;DHT22;27613;48.116;11.656;2023-06-10T11:25:39;31.40;54.50
41924;DHT22;27613;48.116;11.656;2023-06-10T11:28:19;32.60;52.80
41924;DHT22;27613;48.116;11.656;2023-06-10T11:30:45;33.20;51.60
41924;DHT22;27613;48.116;11.656;2023-06-10T11:33:16;32.00;51.50
41924;DHT22;27613;48.116;11.656;2023-06-10T11:35:42;32.00;52.00
41924;DHT22;27613;48.116;11.656;2023-06-10T11:38:08;33.60;51.10
41924;DHT22;27613;48.116;11.656;2023-06-10T11:40:34;34.50;50.50
41924;DHT22;27613;48.116;11.656;2023-06-10T11:43:03;34.90;48.80
41924;DHT22;27613;48.116;11.656;2023-06-10T11:45:29;32.70;50.00
41924;DHT22;27613;48.116;11.656;2023-06-10T11:47:59;32.30;51.20
41924;DHT22;27613;48.116;11.656;2023-06-10T11:50:31;33.50;49.60
41924;DHT22;27613;48.116;11.656;2023-06-10T11:52:57;34.20;49.40
41924;DHT22;27613;48.116;11.656;2023-06-10T11:55:45;34.40;48.60
41924;DHT22;27613;48.116;11.656;2023-06-10T11:58:28;35.50;46.80
41924;DHT22;27613;48.116;11.656;2023-06-10T12:00:55;36.40;46.70
41924;DHT22;27613;48.116;11.656;2023-06-10T12:03:28;36.50;44.70
41924;DHT22;27613;48.116;11.656;2023-06-10T12:06:03;36.70;44.10
41924;DHT22;27613;48.116;11.656;2023-06-10T12:08:29;35.70;45.50
41924;DHT22;27613;48.116;11.656;2023-06-10T12:10:55;36.30;44.90
41924;DHT22;27613;48.116;11.656;2023-06-10T12:13:21;36.60;43.90
41924;DHT22;27613;48.116;11.656;2023-06-10T12:15:48;37.00;43.80
41924;DHT22;27613;48.116;11.656;2023-06-10T12:18:21;36.10;44.60
41924;DHT22;27613;48.116;11.656;2023-06-10T12:20:47;35.80;44.90
41924;DHT22;27613;48.116;11.656;2023-06-10T12:23:14;36.30;44.00
41924;DHT22;27613;48.116;11.656;2023-06-10T12:25:49;35.90;43.70
41924;DHT22;27613;48.116;11.656;2023-06-10T12:28:16;36.80;44.60
41924;DHT22;27613;48.116;11.656;2023-06-10T12:30:43;37.10;43.00
41924;DHT22;27613;48.116;11.656;2023-06-10T12:33:19;36.60;43.30
41924;DHT22;27613;48.116;11.656;2023-06-10T12:35:49;36.10;43.40
41924;DHT22;27613;48.116;11.656;2023-06-10T12:38:24;34.90;45.30
41924;DHT22;27613;48.116;11.656;2023-06-10T12:40:50;36.40;44.30
41924;DHT22;27613;48.116;11.656;2023-06-10T12:43:34;36.60;43.90
41924;DHT22;27613;48.116;11.656;2023-06-10T12:46:09;38.20;43.50
41924;DHT22;27613;48.116;11.656;2023-06-10T12:48:49;39.10;42.30
41924;DHT22;27613;48.116;11.656;2023-06-10T12:51:16;37.20;44.10
41924;DHT22;27613;48.116;11.656;2023-06-10T12:53:41;34.40;47.70
41924;DHT22;27613;48.116;11.656;2023-06-10T12:56:07;35.20;47.60
41924;DHT22;27613;48.116;11.656;2023-06-10T12:58:32;33.80;49.00
41924;DHT22;27613;48.116;11.656;2023-06-10T13:00:58;33.40;50.00
41924;DHT22;27613;48.116;11.656;2023-06-10T13:03:24;35.10;48.60
41924;DHT22;27613;48.116;11.656;2023-06-10T13:05:50;35.80;48.60
41924;DHT22;27613;48.116;11.656;2023-06-10T13:08:15;35.10;47.60
41924;DHT22;27613;48.116;11.656;2023-06-10T13:10:41;33.40;49.40
41924;DHT22;27613;48.116;11.656;2023-06-10T13:13:08;31.50;52.80
41924;DHT22;27613;48.116;11.656;2023-06-10T13:15:35;30.90;53.90
41924;DHT22;27613;48.116;11.656;2023-06-10T13:18:04;31.20;53.40
41924;DHT22;27613;48.116;11.656;2023-06-10T13:20:30;32.20;53.00
41924;DHT22;27613;48.116;11.656;2023-06-10T13:22:56;32.80;52.10
41924;DHT22;27613;48.116;11.656;2023-06-10T13:25:21;34.00;51.20
41924;DHT22;27613;48.116;11.656;2023-06-10T13:27:48;35.10;49.40
41924;DHT22;27613;48.116;11.656;2023-06-10T13:30:14;33.90;50.50
41924;DHT22;27613;48.116;11.656;2023-06-10T13:32:40;34.10;50.20
41924;DHT22;27613;48.116;11.656;2023-06-10T13:35:06;33.70;49.90
41924;DHT22;27613;48.116;11.656;2023-06-10T13:37:32;34.60;48.40
41924;DHT22;27613;48.116;11.656;2023-06-10T13:39:59;35.70;47.20
41924;DHT22;27613;48.116;11.656;2023-06-10T13:42:24;35.20;47.20
41924;DHT22;27613;48.116;11.656;2023-06-10T13:44:51;36.10;45.20
41924;DHT22;27613;48.116;11.656;2023-06-10T13:47:17;36.80;44.10
41924;DHT22;27613;48.116;11.656;2023-06-10T13:49:42;36.20;44.90
41924;DHT22;27613;48.116;11.656;2023-06-10T13:52:08;36.60;44.90
41924;DHT22;27613;48.116;11.656;2023-06-10T13:54:34;37.10;44.50
41924;DHT22;27613;48.116;11.656;2023-06-10T13:57:02;37.40;44.30
41924;DHT22;27613;48.116;11.656;2023-06-10T13:59:27;37.90;44.10
41924;DHT22;27613;48.116;11.656;2023-06-10T14:01:53;38.10;43.30
41924;DHT22;27613;48.116;11.656;2023-06-10T14:04:18;37.70;43.00
41924;DHT22;27613;48.116;11.656;2023-06-10T14:06:44;37.70;43.80
41924;DHT22;27613;48.116;11.656;2023-06-10T14:09:13;37.10;43.50
41924;DHT22;27613;48.116;11.656;2023-06-10T14:11:39;37.10;44.00
41924;DHT22;27613;48.116;11.656;2023-06-10T14:14:04;37.40;43.10
41924;DHT22;27613;48.116;11.656;2023-06-10T14:16:30;37.30;42.50
41924;DHT22;27613;48.116;11.656;2023-06-10T14:18:56;37.20;43.80
41924;DHT22;27613;48.116;11.656;2023-06-10T14:21:21;36.60;44.60
41924;DHT22;27613;48.116;11.656;2023-06-10T14:23:47;37.00;44.80
41924;DHT22;27613;48.116;11.656;2023-06-10T14:26:14;37.40;44.50
41924;DHT22;27613;48.116;11.656;2023-06-10T14:28:40;35.20;46.90
41924;DHT22;27613;48.116;11.656;2023-06-10T14:31:05;35.50;46.40
41924;DHT22;27613;48.116;11.656;2023-06-10T14:33:31;35.80;45.40
41924;DHT22;27613;48.116;11.656;2023-06-10T14:35:57;36.60;43.60
41924;DHT22;27613;48.116;11.656;2023-06-10T14:38:23;36.80;42.10
41924;DHT22;27613;48.116;11.656;2023-06-10T14:40:48;36.70;42.40
41924;DHT22;27613;48.116;11.656;2023-06-10T14:43:14;37.10;42.80
41924;DHT22;27613;48.116;11.656;2023-06-10T14:45:40;35.80;43.60
41924;DHT22;27613;48.116;11.656;2023-06-10T14:48:06;36.80;42.80
41924;DHT22;27613;48.116;11.656;2023-06-10T14:50:32;36.60;42.50
41924;DHT22;27613;48.116;11.656;2023-06-10T14:53:02;35.60;44.20
41924;DHT22;27613;48.116;11.656;2023-06-10T14:55:28;34.80;45.50
41924;DHT22;27613;48.116;11.656;2023-06-10T14:57:53;35.30;44.50
41924;DHT22;27613;48.116;11.656;2023-06-10T15:00:19;35.00;46.80
41924;DHT22;27613;48.116;11.656;2023-06-10T15:02:47;35.70;46.00
41924;DHT22;27613;48.116;11.656;2023-06-10T15:05:14;36.50;46.20
41924;DHT22;27613;48.116;11.656;2023-06-10T15:07:41;36.50;45.80
41924;DHT22;27613;48.116;11.656;2023-06-10T15:10:07;35.10;46.80
41924;DHT22;27613;48.116;11.656;2023-06-10T15:12:32;34.10;48.40
41924;DHT22;27613;48.116;11.656;2023-06-10T15:14:58;33.50;48.70
41924;DHT22;27613;48.116;11.656;2023-06-10T15:17:24;33.00;49.40
41924;DHT22;27613;48.116;11.656;2023-06-10T15:19:49;33.90;49.00
41924;DHT22;27613;48.116;11.656;2023-06-10T15:22:15;35.20;46.30
41924;DHT22;27613;48.116;11.656;2023-06-10T15:24:40;34.60;45.10
41924;DHT22;27613;48.116;11.656;2023-06-10T15:27:06;35.30;45.50
41924;DHT22;27613;48.116;11.656;2023-06-10T15:29:32;35.90;45.40